Time;durP1;ratioP1;P1;durP2;ratioP2;P2;SDS_P1;SDS_P2;PMS_P1;PMS_P2;Temp;Humidity;BMP_temperature;BMP_pressure;BME280_temperature;BME280_humidity;BME280_pressure;Samples;Min_cycle;Max_cycle;Signal;HPM_P1;HPM_P2
2021/06/11 00:02:22;;;;;;;0.50;0.40;;;19.20;99.90;;;;;;5091094;28;20462;-82
2021/06/11 00:04:49;;;;;;;0.50;0.40;;;19.20;99.90;;;;;;5081463;28;20486;-83
2021/06/11 00:07:15;;;;;;;0.50;0.30;;;19.10;99.90;;;;;;5081397;28;20509;-81
2021/06/11 00:09:41;;;;;;;0.73;0.73;;;19.10;99.90;;;;;;5083051;28;20446;-81
2021/06/11 00:12:09;;;;;;;0.50;0.30;;;19.10;99.90;;;;;;5081259;28;20483;-81
2021/06/11 00:14:35;;;;;;;0.50;0.40;;;19.00;99.90;;;;;;5082385;28;20440;-81
2021/06/11 00:17:02;;;;;;;0.50;0.40;;;19.00;99.90;;;;;;5081212;28;20440;-81
2021/06/11 00:19:29;;;;;;;0.50;0.40;;;19.00;99.90;;;;;;5082248;28;20856;-81
2021/06/11 00:21:56;;;;;;;0.50;0.30;;;19.00;99.90;;;;;;5081765;28;20468;-81
2021/06/11 00:24:22;;;;;;;0.50;0.30;;;18.90;99.90;;;;;;5081473;28;20448;-80
2021/06/11 00:26:48;;;;;;;0.50;0.30;;;18.80;99.90;;;;;;5080772;28;20945;-82
2021/06/11 00:29:14;;;;;;;0.50;0.40;;;18.80;99.90;;;;;;5081181;28;20479;-82
2021/06/11 00:31:41;;;;;;;0.50;0.30;;;18.80;99.90;;;;;;5085762;28;20466;-81
2021/06/11 00:34:07;;;;;;;0.80;0.80;;;18.80;99.90;;;;;;5084448;28;20475;-82
2021/06/11 00:36:34;;;;;;;0.50;0.40;;;18.80;99.90;;;;;;5081321;28;20447;-82
2021/06/11 00:39:01;;;;;;;0.50;0.30;;;18.70;99.90;;;;;;5081575;28;20961;-78
2021/06/11 00:41:27;;;;;;;0.50;0.30;;;18.70;99.90;;;;;;5080971;28;20475;-80
2021/06/11 00:43:53;;;;;;;0.50;0.40;;;18.70;99.90;;;;;;5081403;28;20433;-78
2021/06/11 00:46:19;;;;;;;0.50;0.30;;;18.60;99.90;;;;;;5081206;28;20453;-80
2021/06/11 00:48:45;;;;;;;0.50;0.40;;;18.60;99.90;;;;;;5081427;28;20447;-81
2021/06/11 00:51:12;;;;;;;0.50;0.30;;;18.60;99.90;;;;;;5082266;28;20459;-81
2021/06/11 00:53:40;;;;;;;0.50;0.30;;;18.60;99.90;;;;;;5081867;28;20501;-81
2021/06/11 00:56:06;;;;;;;0.50;0.30;;;18.60;99.90;;;;;;5082527;28;20450;-82
2021/06/11 00:58:33;;;;;;;0.50;0.40;;;18.60;99.90;;;;;;5081043;28;20438;-81
2021/06/11 01:00:59;;;;;;;0.50;0.30;;;18.50;99.90;;;;;;5090041;28;20461;-81
2021/06/11 01:03:25;;;;;;;0.50;0.30;;;18.50;99.90;;;;;;5094962;28;20433;-80
2021/06/11 01:05:52;;;;;;;0.50;0.30;;;18.50;99.90;;;;;;5104231;28;20437;-82
2021/06/11 01:08:18;;;;;;;0.50;0.30;;;18.50;99.90;;;;;;5101894;28;20439;-82
2021/06/11 01:10:47;;;;;;;0.50;0.30;;;18.50;99.90;;;;;;5102353;28;20461;-81
2021/06/11 01:13:15;;;;;;;0.50;0.30;;;18.40;99.90;;;;;;5102676;28;20471;-82
2021/06/11 01:15:42;;;;;;;0.50;0.30;;;18.30;99.90;;;;;;5102211;28;20437;-81
2021/06/11 01:18:10;;;;;;;0.50;0.40;;;18.30;99.90;;;;;;5101091;28;20442;-81
2021/06/11 01:20:36;;;;;;;0.50;0.30;;;18.30;99.90;;;;;;5101776;28;20462;-81
2021/06/11 01:23:50;;;;;;;0.50;0.30;;;18.30;99.90;;;;;;5100566;28;20437;-81
2021/06/11 01:26:23;;;;;;;0.50;0.40;;;18.30;99.90;;;;;;5074249;28;20449;-82
2021/06/11 01:28:51;;;;;;;0.50;0.40;;;18.20;99.90;;;;;;5104060;28;20913;-82
2021/06/11 01:31:19;;;;;;;0.60;0.53;;;18.20;99.90;;;;;;5103076;22;20518;-78
2021/06/11 01:33:47;;;;;;;0.50;0.30;;;18.20;99.90;;;;;;5085923;28;20481;-75
2021/06/11 01:36:18;;;;;;;0.50;0.30;;;18.10;99.90;;;;;;5092037;28;20469;-78
2021/06/11 01:38:49;;;;;;;0.50;0.30;;;18.10;99.90;;;;;;5095955;28;20455;-77
2021/06/11 01:41:18;;;;;;;0.50;0.33;;;18.10;99.90;;;;;;5095993;28;20516;-77
2021/06/11 01:43:48;;;;;;;0.50;0.30;;;18.10;99.90;;;;;;5096207;28;20496;-78
2021/06/11 01:46:17;;;;;;;0.50;0.30;;;18.00;99.90;;;;;;5096022;28;20436;-79
2021/06/11 01:48:46;;;;;;;0.50;0.30;;;18.00;99.90;;;;;;5095831;28;20457;-78
2021/06/11 01:51:14;;;;;;;0.50;0.40;;;18.00;99.90;;;;;;5095759;28;20989;-78
2021/06/11 01:53:42;;;;;;;0.50;0.40;;;18.00;99.90;;;;;;5095472;28;20480;-77
2021/06/11 01:56:11;;;;;;;0.50;0.30;;;17.90;99.90;;;;;;5097085;28;20443;-76
2021/06/11 01:58:37;;;;;;;0.50;0.30;;;17.90;99.90;;;;;;5100033;28;20442;-78
2021/06/11 02:01:05;;;;;;;0.50;0.30;;;17.80;99.90;;;;;;5093961;28;20460;-78
2021/06/11 02:03:32;;;;;;;0.50;0.40;;;17.80;99.90;;;;;;5067042;28;20507;-79
2021/06/11 02:06:00;;;;;;;0.50;0.40;;;17.80;99.90;;;;;;5075585;28;20844;-77
2021/06/11 02:08:26;;;;;;;0.50;0.40;;;17.80;99.90;;;;;;5074916;28;20459;-78
2021/06/11 02:10:53;;;;;;;0.50;0.40;;;17.80;99.90;;;;;;5075626;28;20444;-78
2021/06/11 02:13:20;;;;;;;0.50;0.40;;;17.80;99.90;;;;;;5075114;28;20468;-78
2021/06/11 02:15:48;;;;;;;0.50;0.30;;;17.70;99.90;;;;;;5075032;28;20448;-78
2021/06/11 02:18:16;;;;;;;0.50;0.30;;;17.80;99.90;;;;;;5074296;28;20436;-78
2021/06/11 02:20:42;;;;;;;0.50;0.30;;;17.80;99.90;;;;;;5075281;28;20442;-77
2021/06/11 02:23:08;;;;;;;0.50;0.30;;;17.80;99.90;;;;;;5075305;28;20797;-79
2021/06/11 02:25:34;;;;;;;0.50;0.30;;;17.80;99.90;;;;;;5074810;28;20442;-77
2021/06/11 02:28:01;;;;;;;0.50;0.40;;;17.70;99.90;;;;;;5074231;28;20438;-77
2021/06/11 02:30:28;;;;;;;0.50;0.40;;;17.70;99.90;;;;;;5074997;28;20440;-76
2021/06/11 02:32:54;;;;;;;0.50;0.30;;;17.70;99.90;;;;;;5067240;28;20477;-79
2021/06/11 02:35:24;;;;;;;0.50;0.30;;;17.60;99.90;;;;;;5073966;28;20486;-78
2021/06/11 02:37:51;;;;;;;0.50;0.30;;;17.60;99.90;;;;;;5074897;28;20437;-77
2021/06/11 02:40:19;;;;;;;0.50;0.30;;;17.60;99.90;;;;;;5074713;28;20449;-78
2021/06/11 02:42:48;;;;;;;0.50;0.40;;;17.60;99.90;;;;;;5074108;28;20486;-76
2021/06/11 02:45:20;;;;;;;0.50;0.30;;;17.60;99.90;;;;;;5074553;28;20438;-78
2021/06/11 02:47:51;;;;;;;0.50;0.30;;;17.60;99.90;;;;;;5074262;28;20441;-79
2021/06/11 02:50:23;;;;;;;0.50;0.40;;;17.60;99.90;;;;;;5073624;28;20436;-78
2021/06/11 02:52:52;;;;;;;0.50;0.30;;;17.60;99.90;;;;;;5074062;28;20570;-78
2021/06/11 02:55:22;;;;;;;0.50;0.40;;;17.50;99.90;;;;;;5073806;28;20444;-79
2021/06/11 02:57:54;;;;;;;0.50;0.30;;;17.50;99.90;;;;;;5074011;28;20490;-74
2021/06/11 03:00:21;;;;;;;0.50;0.30;;;17.40;99.90;;;;;;5074602;28;20432;-77
2021/06/11 03:02:52;;;;;;;0.50;0.30;;;17.40;99.90;;;;;;5067253;28;20454;-79
2021/06/11 03:05:23;;;;;;;0.50;0.40;;;17.40;99.90;;;;;;5073366;28;20429;-79
2021/06/11 03:07:53;;;;;;;0.50;0.40;;;17.30;99.90;;;;;;5074493;28;20793;-77
2021/06/11 03:10:22;;;;;;;0.50;0.30;;;17.30;99.90;;;;;;5074561;28;20909;-77
2021/06/11 03:12:49;;;;;;;0.50;0.30;;;17.30;99.90;;;;;;5073739;28;20560;-78
2021/06/11 03:15:16;;;;;;;0.50;0.30;;;17.30;99.90;;;;;;5074622;28;20443;-77
2021/06/11 03:17:46;;;;;;;0.50;0.40;;;17.30;99.90;;;;;;5073470;28;20432;-77
2021/06/11 03:20:15;;;;;;;0.50;0.30;;;17.30;99.90;;;;;;5074233;28;20442;-77
2021/06/11 03:22:50;;;;;;;0.50;0.40;;;17.30;99.90;;;;;;5074032;28;20460;-77
2021/06/11 03:25:22;;;;;;;0.50;0.40;;;17.30;99.90;;;;;;5074129;28;20478;-77
2021/06/11 03:27:53;;;;;;;0.50;0.40;;;17.30;99.90;;;;;;5073198;28;20441;-78
2021/06/11 03:30:22;;;;;;;0.50;0.30;;;17.30;99.90;;;;;;5074004;28;20447;-77
2021/06/11 03:32:53;;;;;;;0.50;0.40;;;17.20;99.90;;;;;;5066887;28;20481;-77
2021/06/11 03:35:23;;;;;;;0.50;0.33;;;17.30;99.90;;;;;;5072827;28;20429;-80
2021/06/11 03:37:53;;;;;;;0.50;0.30;;;17.20;99.90;;;;;;5073225;28;20440;-76
2021/06/11 03:40:24;;;;;;;0.50;0.30;;;17.20;99.90;;;;;;5073062;28;20416;-79
2021/06/11 03:42:52;;;;;;;0.50;0.37;;;17.20;99.90;;;;;;5073497;28;20821;-76
2021/06/11 03:45:20;;;;;;;0.50;0.40;;;17.30;99.90;;;;;;5073460;28;20468;-77
2021/06/11 03:47:47;;;;;;;0.50;0.30;;;17.20;99.90;;;;;;5072841;28;20448;-78
2021/06/11 03:50:19;;;;;;;0.50;0.30;;;17.30;99.90;;;;;;5073801;28;20470;-77
2021/06/11 03:52:48;;;;;;;0.50;0.30;;;17.30;99.90;;;;;;5073160;28;20473;-79
2021/06/11 03:55:19;;;;;;;0.50;0.30;;;17.30;99.90;;;;;;5072565;28;20587;-76
2021/06/11 03:57:49;;;;;;;3.40;2.83;;;17.30;99.90;;;;;;5073161;28;20452;-78
2021/06/11 04:00:18;;;;;;;0.50;0.30;;;17.40;99.90;;;;;;5073032;28;20436;-76
2021/06/11 04:02:44;;;;;;;0.50;0.30;;;17.40;99.90;;;;;;5067534;28;20458;-78
2021/06/11 04:05:12;;;;;;;0.50;0.30;;;17.40;99.90;;;;;;5071017;28;20440;-76
2021/06/11 05:04:06;;;;;;;1.53;1.43;;;17.30;99.90;;;;;;5150903;27;20518;-79
2021/06/11 05:06:32;;;;;;;0.50;0.40;;;17.40;99.90;;;;;;5150760;27;20986;-78
2021/06/11 05:08:58;;;;;;;0.50;0.40;;;17.60;99.90;;;;;;5151256;27;20805;-77
2021/06/11 05:11:25;;;;;;;0.50;0.30;;;17.80;99.90;;;;;;5151107;27;20506;-77
2021/06/11 05:13:51;;;;;;;1.47;1.07;;;17.90;99.90;;;;;;5151506;27;20429;-76
2021/06/11 05:16:17;;;;;;;0.50;0.30;;;18.00;99.90;;;;;;5151929;27;20437;-77
2021/06/11 05:18:43;;;;;;;0.50;0.40;;;18.20;99.90;;;;;;5150576;27;20437;-76
2021/06/11 05:21:11;;;;;;;0.50;0.30;;;18.30;99.90;;;;;;5150887;27;20456;-78
2021/06/11 05:23:37;;;;;;;2.17;1.93;;;18.50;99.90;;;;;;5150738;27;20465;-77
2021/06/11 05:26:03;;;;;;;1.67;1.37;;;18.60;99.90;;;;;;5151295;27;20442;-77
2021/06/11 05:28:29;;;;;;;0.50;0.40;;;18.80;99.90;;;;;;5151521;27;20441;-77
2021/06/11 05:30:56;;;;;;;0.50;0.40;;;18.80;99.90;;;;;;5150705;27;20443;-77
2021/06/11 05:33:23;;;;;;;0.80;0.80;;;18.90;99.90;;;;;;5161948;27;20457;-77
2021/06/11 05:35:49;;;;;;;0.50;0.40;;;19.00;99.90;;;;;;5171700;27;20801;-77
2021/06/11 05:38:17;;;;;;;0.50;0.30;;;19.10;99.90;;;;;;5171494;27;20438;-77
2021/06/11 05:40:44;;;;;;;0.50;0.30;;;19.20;99.90;;;;;;5171681;27;20443;-76
2021/06/11 05:43:10;;;;;;;1.03;0.97;;;19.30;99.90;;;;;;5171476;27;21026;-76
2021/06/11 05:45:37;;;;;;;2.70;0.70;;;19.50;99.90;;;;;;5171490;27;20453;-77
2021/06/11 05:48:04;;;;;;;0.50;0.33;;;19.50;99.90;;;;;;5170994;27;20494;-77
2021/06/11 05:50:31;;;;;;;0.50;0.30;;;19.60;99.90;;;;;;5171046;27;20433;-78
2021/06/11 05:52:57;;;;;;;0.60;0.60;;;19.70;99.90;;;;;;5171037;27;20447;-77
2021/06/11 05:55:25;;;;;;;0.80;0.80;;;19.80;99.90;;;;;;5170048;27;20437;-77
2021/06/11 05:57:52;;;;;;;3.70;3.30;;;19.90;99.90;;;;;;5171260;27;20447;-76
2021/06/11 06:00:19;;;;;;;3.23;2.30;;;19.90;99.90;;;;;;5170893;27;20438;-77
2021/06/11 06:02:45;;;;;;;1.00;0.80;;;20.00;99.90;;;;;;5162583;27;20501;-77
2021/06/11 06:05:13;;;;;;;0.50;0.30;;;20.10;99.90;;;;;;5171360;27;20939;-77
2021/06/11 06:07:40;;;;;;;2.73;2.60;;;20.20;99.90;;;;;;5170592;27;20438;-78
2021/06/11 06:10:08;;;;;;;0.60;0.50;;;20.30;99.90;;;;;;5171322;27;20442;-77
2021/06/11 06:12:35;;;;;;;0.50;0.40;;;20.50;99.90;;;;;;5170976;27;20459;-77
2021/06/11 06:15:02;;;;;;;0.70;0.70;;;20.70;99.90;;;;;;5159157;27;20434;-78
2021/06/11 06:17:31;;;;;;;2.40;2.20;;;20.80;99.90;;;;;;5156032;27;20440;-77
2021/06/11 06:19:57;;;;;;;0.50;0.30;;;20.90;99.90;;;;;;5157626;27;20518;-77
2021/06/11 06:22:23;;;;;;;0.50;0.33;;;21.40;99.90;;;;;;5156873;27;20565;-77
2021/06/11 06:24:49;;;;;;;0.50;0.33;;;21.70;99.90;;;;;;5157172;27;20590;-77
2021/06/11 06:27:16;;;;;;;0.50;0.40;;;21.80;99.90;;;;;;5156854;27;20513;-77
2021/06/11 06:29:43;;;;;;;0.50;0.40;;;21.90;99.90;;;;;;5156464;27;20439;-78
2021/06/11 06:32:09;;;;;;;0.50;0.30;;;22.00;99.90;;;;;;5146425;27;20462;-78
2021/06/11 06:34:35;;;;;;;2.33;2.20;;;22.10;99.90;;;;;;5143497;27;20445;-78
2021/06/11 06:37:02;;;;;;;0.50;0.40;;;22.50;99.90;;;;;;5134759;27;20969;-77
2021/06/11 06:39:28;;;;;;;0.80;0.80;;;22.70;99.90;;;;;;5135466;27;20445;-77
2021/06/11 06:41:55;;;;;;;0.50;0.40;;;23.00;99.90;;;;;;5135516;27;20457;-77
2021/06/11 06:44:22;;;;;;;0.50;0.40;;;23.20;99.90;;;;;;5135724;27;20530;-79
2021/06/11 06:46:49;;;;;;;0.50;0.30;;;23.40;99.90;;;;;;5135046;27;20437;-76
2021/06/11 06:49:16;;;;;;;0.50;0.30;;;23.60;99.90;;;;;;5135286;27;20437;-79
2021/06/11 06:51:42;;;;;;;0.50;0.40;;;23.80;99.90;;;;;;5135080;27;20486;-76
2021/06/11 06:54:09;;;;;;;0.50;0.30;;;24.40;99.90;;;;;;5135820;27;20826;-77
2021/06/11 06:56:35;;;;;;;0.50;0.30;;;25.10;99.90;;;;;;5135048;27;20451;-79
2021/06/11 06:59:01;;;;;;;0.80;0.80;;;25.60;99.90;;;;;;5135734;27;20444;-77
2021/06/11 07:01:27;;;;;;;4.73;1.07;;;26.10;99.90;;;;;;5137267;27;20458;-77
2021/06/11 07:03:57;;;;;;;0.50;0.40;;;26.10;99.90;;;;;;5146427;27;20944;-77
2021/06/11 07:06:23;;;;;;;0.70;0.70;;;25.80;99.90;;;;;;5156048;27;20440;-75
2021/06/11 07:08:50;;;;;;;0.50;0.30;;;25.30;99.90;;;;;;5155355;27;20437;-79
2021/06/11 07:11:16;;;;;;;0.73;0.70;;;25.10;99.90;;;;;;5155887;27;20463;-77
2021/06/11 07:13:42;;;;;;;1.63;1.23;;;25.10;99.90;;;;;;5155683;27;20432;-77
2021/06/11 07:16:08;;;;;;;2.10;1.43;;;25.30;99.90;;;;;;5124801;27;21028;-78
2021/06/11 07:18:36;;;;;;;1.80;1.60;;;25.50;99.90;;;;;;5127800;27;20437;-78
2021/06/11 07:21:04;;;;;;;0.50;0.33;;;25.50;99.90;;;;;;5134280;27;20449;-79
2021/06/11 07:23:32;;;;;;;0.50;0.30;;;25.50;99.90;;;;;;5133774;27;20956;-80
2021/06/11 07:25:58;;;;;;;0.50;0.30;;;25.30;99.90;;;;;;5133043;27;20942;-78
2021/06/11 07:28:26;;;;;;;0.50;0.40;;;25.20;99.90;;;;;;5133699;27;20453;-77
2021/06/11 07:30:52;;;;;;;0.50;0.40;;;25.00;99.90;;;;;;5134346;27;20437;-79
2021/06/11 07:33:19;;;;;;;0.50;0.30;;;24.80;99.90;;;;;;5142660;27;20426;-77
2021/06/11 07:35:45;;;;;;;0.70;0.60;;;24.70;99.90;;;;;;5155898;27;20436;-78
2021/06/11 07:38:12;;;;;;;0.50;0.40;;;24.70;99.90;;;;;;5154553;27;20435;-76
2021/06/11 07:40:39;;;;;;;4.20;0.83;;;24.60;99.90;;;;;;5153858;27;20797;-79
2021/06/11 07:43:05;;;;;;;0.60;0.53;;;24.50;99.90;;;;;;5153444;27;20473;-79
2021/06/11 07:45:31;;;;;;;0.50;0.40;;;24.40;99.90;;;;;;5153012;27;20455;-78
2021/06/11 07:47:58;;;;;;;0.50;0.30;;;24.20;99.90;;;;;;5152162;27;20811;-78
2021/06/11 07:50:24;;;;;;;0.57;0.57;;;24.20;99.90;;;;;;5152872;27;20440;-78
2021/06/11 07:52:50;;;;;;;0.50;0.30;;;24.40;99.90;;;;;;5152915;27;20456;-77
2021/06/11 07:55:18;;;;;;;0.50;0.40;;;24.50;99.90;;;;;;5151574;27;20945;-77
2021/06/11 07:57:44;;;;;;;3.23;2.93;;;24.70;99.90;;;;;;5153799;27;20851;-78
2021/06/11 08:00:11;;;;;;;1.60;1.50;;;24.70;99.90;;;;;;5154170;27;20559;-77
2021/06/11 08:02:38;;;;;;;0.50;0.30;;;25.00;99.90;;;;;;5147120;27;20477;-77
2021/06/11 08:05:05;;;;;;;0.50;0.30;;;25.00;99.90;;;;;;5149833;27;21174;-77
2021/06/11 08:07:31;;;;;;;0.97;0.97;;;25.40;99.90;;;;;;5154281;27;20437;-77
2021/06/11 08:09:58;;;;;;;0.50;0.30;;;25.60;99.90;;;;;;5153505;27;20435;-77
2021/06/11 08:12:26;;;;;;;0.50;0.30;;;25.60;99.90;;;;;;5154077;27;20454;-77
2021/06/11 08:14:52;;;;;;;0.50;0.33;;;25.40;99.90;;;;;;5153793;27;20930;-78
2021/06/11 08:17:19;;;;;;;2.77;2.57;;;25.50;99.90;;;;;;5153197;27;20447;-77
2021/06/11 08:19:45;;;;;;;0.50;0.40;;;25.40;99.90;;;;;;5153741;27;20428;-77
2021/06/11 08:22:11;;;;;;;2.20;0.83;;;25.40;99.90;;;;;;5154104;27;20456;-77
2021/06/11 08:24:37;;;;;;;0.50;0.40;;;25.30;99.90;;;;;;5154211;27;20470;-80
2021/06/11 08:27:04;;;;;;;0.50;0.30;;;25.20;99.90;;;;;;5153779;27;20786;-80
2021/06/11 08:29:32;;;;;;;0.50;0.30;;;25.30;99.90;;;;;;5153866;27;20433;-77
2021/06/11 08:31:59;;;;;;;0.50;0.40;;;25.30;99.90;;;;;;5151695;27;20479;-79
2021/06/11 08:34:28;;;;;;;2.30;2.20;;;25.40;99.90;;;;;;5144771;27;20432;-77
2021/06/11 08:36:55;;;;;;;2.30;0.87;;;25.40;99.90;;;;;;5152827;27;20941;-78
2021/06/11 08:39:21;;;;;;;0.50;0.30;;;25.30;99.90;;;;;;5153358;27;20470;-77
2021/06/11 08:41:47;;;;;;;0.50;0.30;;;25.20;99.90;;;;;;5153766;27;20460;-78
2021/06/11 08:44:13;;;;;;;0.77;0.77;;;25.30;99.90;;;;;;5154017;27;20472;-76
2021/06/11 08:46:45;;;;;;;0.50;0.30;;;25.80;99.90;;;;;;5152731;27;20592;-77
2021/06/11 08:49:11;;;;;;;0.50;0.30;;;26.20;99.90;;;;;;5153275;27;20447;-80
2021/06/11 08:51:37;;;;;;;0.60;0.53;;;26.70;99.90;;;;;;5153890;27;20463;-80
2021/06/11 08:54:04;;;;;;;0.50;0.40;;;26.90;99.90;;;;;;5153611;27;20432;-81
2021/06/11 08:56:30;;;;;;;1.00;0.90;;;26.80;99.90;;;;;;5152512;27;20435;-77
2021/06/11 08:58:56;;;;;;;0.50;0.40;;;26.40;99.90;;;;;;5153350;27;20440;-77
2021/06/11 09:01:22;;;;;;;2.50;1.33;;;26.50;99.90;;;;;;5151324;27;20510;-78
2021/06/11 09:03:52;;;;;;;0.50;0.30;;;26.60;99.90;;;;;;5145998;27;21013;-78
2021/06/11 09:06:19;;;;;;;0.43;0.30;;;26.60;99.90;;;;;;5132569;28;20437;-78
2021/06/11 09:08:51;;;;;;;0.50;0.30;;;26.80;99.90;;;;;;5132233;28;20469;-78
2021/06/11 09:11:20;;;;;;;0.50;0.30;;;27.10;99.90;;;;;;5132075;28;20540;-77
2021/06/11 09:13:48;;;;;;;0.50;0.40;;;27.10;99.90;;;;;;5131876;28;20949;-74
2021/06/11 09:16:15;;;;;;;0.50;0.30;;;27.00;99.90;;;;;;5132530;28;20449;-78
2021/06/11 09:18:44;;;;;;;0.50;0.30;;;26.70;99.90;;;;;;5132253;28;20445;-77
2021/06/11 09:21:30;;;;;;;0.50;0.30;;;26.70;99.90;;;;;;5132411;28;20540;-78
2021/06/11 09:24:21;;;;;;;1.07;1.07;;;26.80;99.90;;;;;;5132314;28;20533;-77
2021/06/11 09:27:07;;;;;;;0.50;0.37;;;26.60;99.90;;;;;;5132668;27;20936;-77
2021/06/11 09:29:35;;;;;;;1.80;0.67;;;26.30;99.90;;;;;;5132587;28;20457;-78
2021/06/11 09:32:21;;;;;;;0.70;0.70;;;26.90;99.90;;;;;;5138981;27;20460;-77
2021/06/11 09:34:50;;;;;;;0.50;0.30;;;27.30;99.90;;;;;;5141339;27;20493;-74
2021/06/11 09:37:20;;;;;;;0.50;0.30;;;27.20;99.90;;;;;;5152311;27;20997;-76
2021/06/11 09:39:51;;;;;;;0.50;0.30;;;26.90;99.90;;;;;;5152361;27;20504;-76
2021/06/11 09:42:19;;;;;;;0.50;0.30;;;26.70;99.90;;;;;;5152578;27;20480;-76
2021/06/11 09:44:54;;;;;;;0.50;0.30;;;26.60;99.90;;;;;;5152757;27;20809;-76
2021/06/11 09:47:40;;;;;;;0.67;0.67;;;26.50;99.90;;;;;;5152461;27;20774;-78
2021/06/11 09:50:13;;;;;;;0.93;0.93;;;26.60;99.90;;;;;;5154807;27;20444;-76
2021/06/11 09:52:56;;;;;;;3.50;0.63;;;26.60;99.90;;;;;;5156225;27;20866;-78
2021/06/11 09:55:24;;;;;;;0.50;0.40;;;26.80;99.90;;;;;;5155816;27;20432;-77
2021/06/11 09:58:03;;;;;;;0.90;0.90;;;26.90;99.90;;;;;;5156035;27;20424;-78
2021/06/11 10:00:30;;;;;;;0.50;0.30;;;27.00;99.90;;;;;;5156044;27;20412;-80
2021/06/11 10:02:58;;;;;;;0.70;0.70;;;27.20;99.90;;;;;;5146317;27;20530;-78
2021/06/11 10:05:25;;;;;;;0.50;0.30;;;27.20;99.90;;;;;;5155644;27;20432;-78
2021/06/11 10:07:53;;;;;;;0.60;0.30;;;27.30;99.90;;;;;;5156353;27;20444;-72
2021/06/11 10:10:20;;;;;;;3.03;1.43;;;27.30;99.90;;;;;;5155644;27;20443;-76
2021/06/11 10:12:46;;;;;;;0.70;0.70;;;27.30;99.90;;;;;;5156124;27;20941;-79
2021/06/11 10:15:14;;;;;;;0.50;0.30;;;27.10;99.90;;;;;;5156411;27;20433;-77
2021/06/11 10:17:41;;;;;;;0.50;0.30;;;27.30;99.90;;;;;;5155427;27;20505;-76
2021/06/11 10:20:09;;;;;;;1.03;1.03;;;28.00;99.90;;;;;;5155431;27;20440;-76
2021/06/11 10:22:35;;;;;;;0.50;0.30;;;28.70;99.90;;;;;;5156092;27;20477;-79
2021/06/11 10:25:03;;;;;;;0.50;0.30;;;29.00;99.90;;;;;;5156299;27;20437;-79
2021/06/11 10:27:30;;;;;;;1.23;1.07;;;29.00;99.90;;;;;;5155770;27;20436;-76
2021/06/11 10:29:57;;;;;;;0.70;0.50;;;28.00;99.90;;;;;;5155582;27;20925;-78
2021/06/11 10:32:24;;;;;;;0.50;0.30;;;27.40;99.90;;;;;;5150383;27;20465;-78
2021/06/11 10:34:51;;;;;;;0.57;0.53;;;27.50;99.90;;;;;;5150338;27;20439;-80
2021/06/11 10:37:33;;;;;;;1.07;1.07;;;27.70;99.90;;;;;;5155820;27;20532;-77
2021/06/11 10:40:15;;;;;;;0.50;0.30;;;27.60;99.90;;;;;;5156028;27;20424;-78
2021/06/11 10:42:41;;;;;;;0.73;0.73;;;27.80;99.90;;;;;;5155077;27;21041;-78
2021/06/11 10:45:11;;;;;;;0.77;0.50;;;27.60;99.90;;;;;;5155485;27;20485;-78
2021/06/11 10:47:39;;;;;;;0.50;0.33;;;27.40;99.90;;;;;;5155109;27;20444;-76
2021/06/11 10:50:11;;;;;;;0.50;0.50;;;27.20;99.90;;;;;;5155866;27;20443;-78
2021/06/11 10:52:39;;;;;;;0.60;0.60;;;27.20;99.90;;;;;;5155030;27;20481;-82
2021/06/11 10:55:49;;;;;;;0.70;0.70;;;27.30;99.90;;;;;;5155023;27;20905;-78
2021/06/11 10:58:37;;;;;;;0.50;0.40;;;27.50;99.90;;;;;;5070454;28;20938;-79
2021/06/11 11:01:29;;;;;;;0.50;0.30;;;27.80;99.90;;;;;;5068050;28;20474;-77
2021/06/11 11:04:17;;;;;;;0.50;0.30;;;28.10;99.90;;;;;;5061463;28;20472;-76
2021/06/11 11:06:43;;;;;;;0.50;0.40;;;28.30;99.90;;;;;;5070403;28;20471;-77
2021/06/11 11:09:09;;;;;;;9.20;4.63;;;28.20;99.90;;;;;;5070341;28;20574;-76
2021/06/11 11:11:41;;;;;;;0.50;0.30;;;28.20;99.90;;;;;;5070232;28;20554;-76
2021/06/11 11:14:39;;;;;;;0.50;0.30;;;28.20;99.90;;;;;;5070717;28;20906;-77
2021/06/11 11:17:06;;;;;;;0.50;0.40;;;27.90;99.90;;;;;;5070702;28;20444;-78
2021/06/11 11:19:49;;;;;;;0.80;0.70;;;27.60;99.90;;;;;;5070334;28;20442;-78
2021/06/11 11:22:33;;;;;;;0.50;0.30;;;27.70;99.90;;;;;;5071043;28;20490;-77
2021/06/11 11:25:03;;;;;;;0.70;0.70;;;27.70;99.90;;;;;;5070650;28;20428;-76
2021/06/11 11:27:29;;;;;;;0.50;0.30;;;27.70;99.90;;;;;;5069866;28;20448;-76
2021/06/11 11:29:57;;;;;;;1.70;1.60;;;27.80;99.90;;;;;;5070547;28;20436;-74
2021/06/11 11:32:25;;;;;;;0.50;0.30;;;27.90;99.90;;;;;;5064399;28;20500;-79
2021/06/11 11:34:51;;;;;;;0.87;0.73;;;28.10;99.90;;;;;;5097120;27;20790;-79
2021/06/11 11:37:18;;;;;;;0.50;0.30;;;27.70;99.90;;;;;;5154796;27;20431;-80
2021/06/11 11:39:46;;;;;;;0.50;0.30;;;27.40;99.90;;;;;;5154421;27;20541;-79
2021/06/11 11:42:12;;;;;;;0.50;0.40;;;27.40;99.90;;;;;;5154502;27;20467;-76
2021/06/11 11:44:39;;;;;;;0.50;0.40;;;27.40;99.90;;;;;;5154835;27;20570;-77
2021/06/11 11:47:07;;;;;;;0.50;0.30;;;27.60;99.90;;;;;;5154381;27;20444;-76
2021/06/11 11:49:33;;;;;;;0.50;0.40;;;28.20;99.90;;;;;;5153984;27;20437;-74
2021/06/11 11:52:01;;;;;;;0.50;0.30;;;28.70;99.90;;;;;;5154202;27;20452;-77
2021/06/11 11:54:28;;;;;;;0.70;0.57;;;28.50;99.90;;;;;;5153668;27;20553;-76
2021/06/11 11:56:54;;;;;;;0.50;0.40;;;28.20;99.90;;;;;;5153629;27;20779;-76
2021/06/11 11:59:21;;;;;;;0.50;0.30;;;28.00;99.90;;;;;;5153856;27;20437;-76
2021/06/11 12:01:47;;;;;;;0.50;0.30;;;28.20;99.90;;;;;;5152446;27;20464;-76
2021/06/11 12:04:14;;;;;;;0.50;0.30;;;29.10;99.90;;;;;;5145411;27;20965;-77
2021/06/11 12:06:41;;;;;;;0.50;0.40;;;29.60;99.90;;;;;;5153766;27;20441;-77
2021/06/11 12:09:08;;;;;;;1.90;1.37;;;29.70;99.90;;;;;;5154549;27;20497;-80
2021/06/11 12:11:34;;;;;;;0.50;0.30;;;29.50;99.90;;;;;;5154116;27;20464;-77
2021/06/11 12:14:00;;;;;;;0.50;0.40;;;29.50;99.90;;;;;;5154625;27;20425;-77
2021/06/11 12:16:27;;;;;;;3.80;1.90;;;30.20;99.90;;;;;;5154029;27;20436;-77
2021/06/11 12:18:53;;;;;;;0.50;0.40;;;31.20;99.90;;;;;;5154567;27;20428;-77
2021/06/11 12:21:21;;;;;;;0.50;0.30;;;32.00;92.60;;;;;;5154087;27;20816;-77
2021/06/11 12:23:47;;;;;;;0.50;0.40;;;32.30;92.00;;;;;;5154026;27;20468;-74
2021/06/11 12:26:13;;;;;;;0.40;0.30;;;32.60;85.70;;;;;;5154105;27;20436;-77
2021/06/11 12:28:39;;;;;;;0.40;0.30;;;32.90;87.10;;;;;;5154277;27;20436;-77
2021/06/11 12:31:06;;;;;;;0.40;0.30;;;32.70;82.80;;;;;;5151789;27;20456;-78
2021/06/11 12:33:32;;;;;;;2.30;1.70;;;33.00;79.90;;;;;;5140881;27;20430;-78
2021/06/11 12:35:58;;;;;;;0.47;0.30;;;32.90;83.80;;;;;;5132122;27;20438;-78
2021/06/11 12:38:26;;;;;;;0.40;0.40;;;33.30;76.90;;;;;;5132989;27;20449;-78
2021/06/11 12:40:55;;;;;;;0.50;0.40;;;33.80;73.60;;;;;;5133025;27;20791;-77
2021/06/11 12:43:29;;;;;;;0.40;0.30;;;33.70;69.10;;;;;;5132460;27;20981;-77
2021/06/11 12:45:55;;;;;;;0.60;0.53;;;34.20;69.20;;;;;;5133093;27;20422;-77
2021/06/11 12:48:21;;;;;;;0.50;0.40;;;35.00;65.30;;;;;;5132505;27;20441;-77
2021/06/11 12:50:47;;;;;;;0.40;0.30;;;34.90;62.70;;;;;;5132662;27;20438;-77
2021/06/11 12:53:13;;;;;;;0.43;0.40;;;34.60;63.80;;;;;;5133181;27;20822;-78
2021/06/11 12:55:41;;;;;;;0.40;0.30;;;34.80;63.90;;;;;;5132947;27;20445;-77
2021/06/11 12:58:08;;;;;;;0.50;0.40;;;34.70;64.90;;;;;;5133310;27;20437;-78
2021/06/11 13:00:34;;;;;;;0.70;0.53;;;34.70;65.40;;;;;;5132682;27;20445;-77
2021/06/11 13:03:00;;;;;;;0.40;0.30;;;34.50;65.70;;;;;;5138973;27;20982;-77
2021/06/11 13:05:27;;;;;;;0.40;0.30;;;34.50;65.30;;;;;;5153120;27;20433;-77
2021/06/11 13:07:54;;;;;;;0.40;0.30;;;34.20;65.40;;;;;;5152934;27;20464;-74
2021/06/11 13:10:20;;;;;;;0.50;0.40;;;34.50;69.50;;;;;;5153671;27;20428;-77
2021/06/11 13:12:48;;;;;;;0.40;0.30;;;35.50;66.40;;;;;;5153339;27;20829;-76
2021/06/11 13:15:15;;;;;;;0.40;0.30;;;36.20;61.70;;;;;;5153339;27;20459;-81
2021/06/11 13:17:41;;;;;;;2.20;1.03;;;35.70;60.20;;;;;;5153595;27;20973;-77
2021/06/11 13:20:09;;;;;;;0.40;0.30;;;34.80;59.60;;;;;;5153467;27;20848;-77
2021/06/11 13:22:36;;;;;;;1.40;0.83;;;34.60;61.60;;;;;;5153252;27;20456;-78
2021/06/11 13:25:03;;;;;;;0.50;0.50;;;34.40;62.60;;;;;;5156526;27;20433;-78
2021/06/11 13:27:30;;;;;;;0.40;0.30;;;33.90;63.90;;;;;;5157140;27;20432;-77
2021/06/11 13:29:57;;;;;;;0.40;0.30;;;33.90;63.50;;;;;;5157373;27;20432;-75
2021/06/11 13:32:23;;;;;;;0.40;0.30;;;33.70;63.90;;;;;;5152966;27;20468;-77
2021/06/11 13:34:49;;;;;;;0.40;0.30;;;33.00;65.80;;;;;;5151887;27;20505;-76
2021/06/11 13:37:16;;;;;;;0.40;0.30;;;33.10;69.10;;;;;;5156720;27;20953;-78
2021/06/11 13:39:42;;;;;;;0.50;0.40;;;34.00;66.40;;;;;;5128840;22;20508;-75
2021/06/11 13:42:09;;;;;;;1.73;1.63;;;35.10;65.20;;;;;;5049366;28;20791;-79
2021/06/11 13:44:35;;;;;;;0.90;0.90;;;35.70;62.00;;;;;;5058609;28;20528;-79
2021/06/11 13:47:06;;;;;;;0.70;0.57;;;36.20;60.70;;;;;;5057952;28;20478;-78
2021/06/11 13:49:32;;;;;;;0.40;0.40;;;36.40;59.30;;;;;;5058851;28;20507;-80
2021/06/11 13:51:59;;;;;;;0.40;0.30;;;36.40;60.00;;;;;;5057993;28;20740;-79